Loisir ou Compétition : Rejoignez un Club de la Fédération

Résultats

COUPE D'ARGENT U14 - GS

VALLOIRE

GS Dames

Jury de Compétition

Délégué Technique :
MARIN LAMELLET THIBAULT (SA)
Arbitre :
BLANC THIERRY (SA)
Assistant :
 
Dir. Epreuve :
GRANGE FRANCOIS (SA)

Caractéristiques de la Piste

Piste :
MELEZES
Départ :
1935
Arrivée :
1710
Dénivelé :
225
Homologation :
2810/12/11

Manche 1

Nombre de Portes :
31
Heure de Départ :
11h30
Traceur :
POILANE CLEMENT (SA)
Ouvreurs A :
BOUVARD ELINE (SA)
Ouvreurs B :
GIRAUD JUSTINE (SA)
Ouvreurs C :
CLERICE BRUNE (SA)
Ouvreurs D :
 
Ouvreurs E :
 
Temps :
BEAU
Neige :
DURE

Manche 2

Nombre de Portes :
31
Heure de Départ :
13h30
Traceur :
GROSJEAN OLIVIER (SA)
Ouvreurs A :
BOUVARD ELINE (SA)
Ouvreurs B :
GIRAUD JUSTINE (SA)
Ouvreurs C :
CLERICE BRUNE (SA)
Ouvreurs D :
 
Ouvreurs E :
 
Température Départ :
-3
Température Arrivée :
-2

Pénalité Appliquée :
112.0400

Catégorie :
U14
Clt Dos Clt/Cat Code An Nom Prénom Com Club Tps M1 Tps M2 Tps Tot Pts
Classés
1 26 1/U14 FFS2673396 2006 BLANC LOLA SA CS TIGNES 49.55 52.43 1:41.98 112.04
2 88 2/U14 FFS2675330 2006 ACQUISTAPACE FIONA SA CHAMBERY SKI 51.00 51.30 1:42.30 115.21
3 56 3/U14 FFS2674942 2006 CURDY LEONTINE SA CS LA PLAGNE 51.06 52.08 1:43.14 123.53
4 3 4/U14 FFS2665478 2006 DAME MARTEL ENORA SA CS VAL CENIS 50.25 53.39 1:43.64 128.48
5 39 5/U14 FFS2672704 2007 ANCENAY LILOU SA ND BELLECOMB 50.65 53.16 1:43.81 130.16
6 62 6/U14 FFS2683346 2007 JEAN MANUTEA SA SC LES ARCS 51.88 52.13 1:44.01 132.14
7 44 7/U14 FFS2681091 2006 AUBONNET LUNE SA US ROSIERE 51.49 52.65 1:44.14 133.43
8 14 8/U14 FFS2673775 2006 QUEZEL AMBRUNAZ LEA SA CS TOUSSUIRE 50.60 54.00 1:44.60 137.99
9 68 9/U14 FFS2667057 2006 ANSELME MARTIN KELLY SA SC ARECHES 51.92 52.70 1:44.62 138.19
10 93 10/U14 FFS2678763 2006 MINGUET LOU SA ST FRANCOIS 52.29 52.62 1:44.91 141.06
11 35 11/U14 FFS2665531 2006 BURDIN LAURINE SA CS VAL CENIS 51.68 53.34 1:45.02 142.15
12 46 12/U14 FFS2666975 2006 BAZILE LYDIE SA VAL D'ISERE 52.13 53.14 1:45.27 144.62
13 18 13/U14 FFS2682155 2007 BROWN RUBY SA VILLAROGER 51.85 53.61 1:45.46 146.51
14 78 14/U14 FFS2671469 2006 CANCHON MORGANE SA SC PRALOGNAN 53.31 52.38 1:45.69 148.78
15 36 15/U14 FFS2667083 2006 MONIER CHLOE SA CO VAL THO 51.63 54.09 1:45.72 149.08
16 41 16/U14 FFS2679350 2006 BOIS CORENTINE SA ST FRANCOIS 51.74 54.01 1:45.75 149.38
17 1 17/U14 FFS2697066 2006 BLYTH MAISIE SA CS TIGNES 51.50 54.58 1:46.08 152.65
17 84 17/U14 FFS2680681 2007 BLAIS JULIETTE SA CS TOUSSUIRE 52.88 53.20 1:46.08 152.65
19 31 19/U14 FFS2682900 2007 DI EMANUELE CARLA SA ST FRANCOIS 52.56 53.80 1:46.36 155.42
20 5 20/U14 FFS2685182 2007 RIDGWAY INDIA SA VAL D'ISERE 51.05 55.46 1:46.51 156.90
21 43 21/U14 FFS2686643 2006 PAGLIANO JEANNE SA CS VALMOREL 52.20 54.68 1:46.88 160.57
22 61 22/U14 FFS2672220 2007 ROUSSON JULIA SA STE FOY TSE 53.46 53.47 1:46.93 161.06
23 32 23/U14 FFS2674395 2006 ASTIER LOLA SA CS LA PLAGNE 52.18 54.80 1:46.98 161.56
24 8 24/U14 FFS2666861 2007 SIMOND MARGOT SA SC AILLONS 51.79 55.26 1:47.05 162.25
25 4 25/U14 FFS2690148 2007 MATHIEU LOUANE SA SC MENUIRES 51.34 55.90 1:47.24 164.13
26 67 26/U14 FFS2680539 2007 LAGU JESSICA SA CS LA PLAGNE 53.62 53.70 1:47.32 164.93
27 25 27/U14 FFS2671311 2006 FONFREDE AUGUSTINE SA CS VALMOREL 52.36 54.98 1:47.34 165.12
27 72 27/U14 FFS2686311 2006 ARTIGUES CELIA SA CS TIGNES 52.95 54.39 1:47.34 165.12
29 28 29/U14 FFS2678811 2007 GUILLAUME LILY MARIE SA SC MENUIRES 52.26 55.11 1:47.37 165.42
30 49 30/U14 FFS2672874 2007 AVENEL MARYLOU SA SC CHAMPAGNY 53.45 53.95 1:47.40 165.72
31 81 31/U14 FFS2686029 2007 FAURE YAEL SA CS TIGNES 53.86 53.60 1:47.46 166.31
32 21 32/U14 FFS2695821 2007 PLANCHE MAELIS SA SC PEISEY VA 52.68 54.95 1:47.63 168.00
33 73 33/U14 FFS2679114 2006 BLANC LILI SA SC BONNEVAL 53.91 53.84 1:47.75 169.19
34 24 34/U14 FFS2673113 2006 HUDRY FANNY SA SC MENUIRES 53.00 54.77 1:47.77 169.38
35 6 35/U14 FFS2678363 2006 REMACLE ROSALIE SA SC LES ARCS 52.50 55.29 1:47.79 169.58
36 66 36/U14 FFS2672514 2007 RIVET LILA SA VAL D'ISERE 53.79 54.03 1:47.82 169.88
37 59 37/U14 FFS2670965 2007 MURTAGH LARA SA COURCHEVEL 53.83 54.59 1:48.42 175.82
38 76 38/U14 FFS2672681 2007 BAFFERT ROMY SA SC AILLONS 54.14 54.67 1:48.81 179.68
39 57 39/U14 FFS2677566 2007 DOMPNIER LAURA SA CS TOUSSUIRE 53.99 54.87 1:48.86 180.18
40 90 40/U14 FFS2683334 2007 BOUET JULIETTE SA SC LES ARCS 53.99 55.02 1:49.01 181.66
41 30 41/U14 FFS2670625 2007 MARTIN PAULINE SA CS KARELLIS 52.93 56.16 1:49.09 182.46
42 13 42/U14 FFS2671471 2006 CANCHON MAE SA SC PRALOGNAN 52.61 56.71 1:49.32 184.73
43 51 43/U14 FFS2678359 2006 JOND LINA SA SC LES ARCS 55.07 54.46 1:49.53 186.81
44 29 44/U14 FFS2683370 2007 ROCCA SERRA SAYA SA SC LES ARCS 52.90 56.69 1:49.59 187.41
45 85 45/U14 FFS2678860 2007 PERRIN ALINE SA SC MENUIRES 56.19 53.41 1:49.60 187.51
46 89 46/U14 FFS2670320 2006 VEILLET NATACHA SA CS MERIBEL 54.92 54.86 1:49.78 189.29
47 71 47/U14 FFS2670920 2007 CRAFFE MAELYS SA CS VAL CENIS 54.75 55.06 1:49.81 189.59
48 2 48/U14 FFS2671044 2006 DOSSIER GOSSAY ANGIE SA CHAMBERY SKI 52.23 57.86 1:50.09 192.36
49 7 49/U14 FFS2674427 2006 CAMBERLIN MARIKA SA CS VAL CENIS 53.02 57.08 1:50.10 192.46
50 54 50/U14 FFS2677123 2006 TODESCHINI CELIA SA SC CHAMPAGNY 54.12 56.01 1:50.13 192.76
51 65 51/U14 FFS2672117 2006 BORNAND PAULINE SA SC MENUIRES 54.95 55.39 1:50.34 194.84
52 9 52/U14 FFS2665503 2006 MAHER ROSIE SA COURCHEVEL 52.69 57.79 1:50.48 196.22
53 40 53/U14 FFS2674677 2007 DELETTRE FLORE SA CO VAL THO 54.87 55.68 1:50.55 196.92
54 58 54/U14 FFS2667365 2006 RYCX MINA SA STE FOY TSE 54.68 55.91 1:50.59 197.31
55 50 55/U14 FFS2674557 2006 VIONNET CHLOE SA CS LA PLAGNE 55.29 55.43 1:50.72 198.60
56 22 56/U14 FFS2665502 2006 LALANNE HEIDI SA COURCHEVEL 53.62 57.13 1:50.75 198.90
57 75 57/U14 FFS2663694 2006 OUVRIER SARAH SA CREST VOLAND 55.57 55.19 1:50.76 199.00
58 63 58/U14 FFS2683756 2007 HALBWACHS JULIE SA SC LES ARCS 55.37 55.40 1:50.77 199.10
59 55 59/U14 FFS2673628 2007 HACQUARD LOLA SA VAL D'ISERE 55.25 56.47 1:51.72 208.50
60 19 60/U14 FFS2671883 2006 CABANE CAROLINE SA SC ROCHETTE 53.74 58.14 1:51.88 210.09
61 86 61/U14 FFS2667369 2006 CROOKS BEATRICE SA STE FOY TSE 56.55 55.47 1:52.02 211.48
62 12 62/U14 FFS2682812 2006 COULAUD ANAIS SA SC GIETTAZ 54.50 58.44 1:52.94 220.59
63 70 63/U14 FFS2679781 2007 VORGER RAT CAMILLE SA CS VALMOREL 56.49 56.63 1:53.12 222.37
64 48 64/U14 FFS2675063 2007 BOUSQUET ORIANE SA SC ROCHETTE 55.30 58.10 1:53.40 225.14
65 64 65/U14 FFS2690803 2007 BEURRIER VICTORIA SA CREST VOLAND 55.36 58.63 1:53.99 230.99
66 15 66/U14 FFS2670126 2006 TOURNIAIRE LOLA SA CHAMBERY SKI 55.64 58.60 1:54.24 233.46
67 83 67/U14 FFS2673833 2007 HOUHOU DUNAND AMANDINE SA COURCHEVEL 57.40 57.19 1:54.59 236.93
68 34 68/U14 FFS2671480 2007 PRIKRYL IVONA SA CO VAL THO 55.33 59.56 1:54.89 239.90
69 11 69/U14 FFS2667077 2006 UROS LOLA SA CO VAL THO 54.78 1:00.46 1:55.24 243.37
70 77 70/U14 FFS2688121 2007 FAVRE ZOE SA SC LA TANIA 57.18 58.19 1:55.37 244.65
71 23 71/U14 FFS2671530 2006 SEGURA RUBIS SA SC AILLONS 55.95 59.62 1:55.57 246.63
72 38 72/U14 FFS2667370 2006 CROOKS LOLA SA STE FOY TSE 56.50 59.72 1:56.22 253.07
73 33 73/U14 FFS2671879 2007 SEGURA VANILLE SA SC AILLONS 56.57 59.99 1:56.56 256.44
74 16 74/U14 FFS2671851 2006 PIATEK ANAIS SA CS LA FECLAZ 56.94 59.70 1:56.64 257.23
75 47 75/U14 FFS2672445 2007 DEBROUX MEI SA ALBERTVILLE 57.61 59.54 1:57.15 262.28
76 60 76/U14 FFS2672013 2007 COLLINET CLEMENTINE SA SC ARECHES 58.25 59.31 1:57.56 266.34
77 69 77/U14 FFS2677235 2007 TSERING SHERPA MAYA SA SC PRALOGNAN 57.99 59.74 1:57.73 268.03
78 87 78/U14 FFS2672817 2007 MARIN LAMELLET ZELIE SA CREST VOLAND 59.61 58.49 1:58.10 271.69
79 10 79/U14 FFS2703149 2007 JACQUET OKSANA SA COURCHEVEL 56.51 1:02.58 1:59.09 281.50
80 91 80/U14 FFS2672733 2007 CHALAMEL LOIS SA SC AILLONS 1:01.27 1:00.82 2:02.09 311.21
81 53 81/U14 FFS2678095 2007 DUBOUCHET CAMILLE SA ND BELLECOMB 1:01.55 1:04.84 2:06.39 353.79
Abandons
17 FFS2687332 2007 MOTTARD YSALINE SA CS TOUSSUIRE 54.81
37 FFS2675900 2007 BOUVARD LEANIE SA SSC VALLOIRE 52.91
45 FFS2671884 2006 DUBOIS CLARA SA SC ROCHETTE 1:00.43
52 FFS2673052 2006 RANSOU CHLOE SA SC MENUIRES 55.67
74 FFS2674926 2006 OZANNE COLINE SA AS AUSSOIS 54.47
92 FFS2680309 2007 THOMAS ANOUK SA CS VAL CENIS 52.13
Non partants
20 FFS2672222 2007 PARKER SWIFT INDIA SA CS TIGNES
27 FFS2668850 2006 CLEMENT ASTRID SA VAL D'ISERE
42 FFS2672123 2006 VASSEUR MARINE MV AS GERARDMER
79 FFS2676382 2007 SKABAR BESSIE SA CS MERIBEL
80 FFS2667060 2006 BLANC MANUELLE SA SC ARECHES
82 FFS2686345 2006 ANTOINE LOICE MV AS GERARDMER
94 FFS2661256 2006 FRIAUD JULIE AU SC MONT DORE